Terminal Aerodrome Forecast
Issued by NWS Denver/Boulder, CO

Home | Current Version | Previous Version | Text Only | Print | Product List | Glossary On
Versions: 1 2 3 4 5 6 7 8 9 10 11 12 13 14 15 16 17 18 19 20 21 22 23 24 25 26 27 28 29 30 31 32 33 34 35 36 37 38 39 40 41 42 43 44 45 46
000
FTUS45 KBOU 191348 AAB
TAFDEN
TAF AMD
KDEN 191348Z 1914/2018 05009KT 3SM -SN BR SCT009 OVC015
      TEMPO 1914/1916 2SM -SN BR BKN008
     FM191600 10010KT 5SM BR SCT012 BKN020
     FM191900 07012KT P6SM BKN014 BKN022
     FM192300 03013G18KT 4SM -SN BR OVC008
      TEMPO 1923/2003 3/4SM -SN BR OVC002
     FM200400 01014KT 3SM -SN BR OVC005
     FM200700 35010KT 5SM BR OVC012
     FM201000 04008KT 3SM BR SCT004 BKN008=

USA.gov is the U.S. government's official web portal to all federal, state and local government web resources and services.